.
WxDataArchive / Data Records for 2006-11-12
2006-11-11 November 2006 2006-11-13

Data Records for Sunday, 12 November 2006

Time	Temp	Chill	HIndex	Humid	Dewpt	 Wind 	HiWind	WindDir	Rain 	Barom 
-----	----	-----	------	-----	-----	------	------	-------	-----	----- 
00:00	36.9	36.9	36.9	71	28.4	0	3	315	0.00	30.216 
00:05	36.9	36.9	36.9	71	28.4	0	2	315	0.00	30.216 
00:10	36.9	36.9	36.9	73	29.1	0	1	315	0.00	30.216 
00:15	36.9	36.9	36.9	72	28.7	0	2	315	0.00	30.212 
00:20	36.9	36.9	36.9	73	29.1	0	3	45	0.00	30.212 
00:25	36.9	36.9	36.9	72	28.7	0	2	338	0.00	30.212 
00:30	36.9	36.9	36.9	73	29.1	0	2	0	0.00	30.217 
00:35	36.8	36.8	36.8	73	29.0	1	3	0	0.00	30.217 
00:40	36.8	36.8	36.8	73	29.0	0	2	338	0.00	30.217 
00:45	36.8	36.8	36.8	74	29.3	0	2	338	0.00	30.215 
00:50	36.8	36.8	36.8	73	29.0	0	3	112	0.00	30.215 
00:55	36.8	36.8	36.8	72	28.6	0	2	292	0.00	30.215 
01:00	36.8	36.8	36.8	72	28.6	0	2	22	0.00	30.219 
01:05	36.8	36.8	36.8	72	28.6	0	2	22	0.00	30.219 
01:10	36.8	36.8	36.8	71	28.3	0	2	0	0.00	30.219 
01:15	36.8	36.8	36.8	73	29.0	0	1	0	0.00	30.219 
01:20	36.8	36.8	36.8	72	28.6	0	2	0	0.00	30.219 
01:25	36.8	36.8	36.8	72	28.6	0	1	0	0.00	30.219 
01:30	36.8	36.8	36.8	72	28.6	0	1	0	0.00	30.223 
01:35	36.8	36.8	36.8	73	29.0	0	1	0	0.00	30.223 
01:40	36.6	36.6	36.6	72	28.4	0	2	292	0.00	30.223 
01:45	36.6	36.6	36.6	73	28.8	0	1	315	0.00	30.224 
01:50	36.6	36.6	36.6	72	28.4	1	2	338	0.00	30.224 
01:55	36.6	36.6	36.6	73	28.8	0	3	68	0.00	30.224 
02:00	36.6	36.6	36.6	73	28.8	0	1	68	0.00	30.228 
02:05	36.6	36.6	36.6	73	28.8	0	1	22	0.00	30.228 
02:10	36.5	36.5	36.5	73	28.7	0	2	22	0.00	30.228 
02:15	36.5	36.5	36.5	74	29.0	0	2	22	0.00	30.229 
02:20	36.5	36.5	36.5	73	28.7	0	3	22	0.00	30.229 
02:25	36.5	36.5	36.5	73	28.7	0	2	68	0.00	30.229 
02:30	36.5	36.5	36.5	75	29.3	0	1	45	0.00	30.237 
02:35	36.5	36.5	36.5	74	29.0	0	1	45	0.00	30.237 
02:40	36.5	36.5	36.5	75	29.3	0	1	22	0.00	30.237 
02:45	36.3	36.3	36.3	73	28.5	0	1	22	0.00	30.239 
02:50	36.3	36.3	36.3	74	28.8	0	1	22	0.00	30.239 
02:55	36.3	36.3	36.3	74	28.8	0	2	0	0.00	30.239 
03:00	36.3	36.3	36.3	75	29.1	0	1	0	0.00	30.239 
03:05	36.3	36.3	36.3	74	28.8	0	1	0	0.00	30.239 
03:10	36.3	36.3	36.3	74	28.8	0	1	0	0.00	30.239 
03:15	36.2	36.2	36.2	74	28.7	0	1	0	0.00	30.241 
03:20	36.2	36.2	36.2	73	28.4	0	1	0	0.00	30.241 
03:25	36.2	36.2	36.2	74	28.7	0	2	0	0.00	30.241 
03:30	36.2	36.2	36.2	74	28.7	0	2	0	0.00	30.241 
03:35	36.0	36.0	36.0	74	28.5	0	1	0	0.00	30.241 
03:40	36.0	36.0	36.0	74	28.5	0	3	22	0.00	30.241 
03:45	36.2	36.2	36.2	74	28.7	0	2	45	0.00	30.242 
03:50	36.2	36.2	36.2	75	29.1	0	1	45	0.00	30.242 
03:55	36.0	36.0	36.0	75	28.9	0	1	45	0.00	30.242 
04:00	36.2	36.2	36.2	75	29.1	0	1	45	0.00	30.250 
04:05	36.0	36.0	36.0	75	28.9	0	3	45	0.00	30.250 
04:10	36.0	36.0	36.0	75	28.9	1	3	45	0.00	30.250 
04:15	36.0	36.0	36.0	74	28.5	0	1	68	0.00	30.252 
04:20	36.0	36.0	36.0	75	28.9	0	3	90	0.00	30.252 
04:25	36.0	36.0	36.0	75	28.9	1	4	90	0.00	30.252 
04:30	36.0	36.0	36.0	75	28.9	1	4	90	0.00	30.244 
04:35	35.9	35.9	35.9	74	28.4	2	5	90	0.00	30.244 
04:40	35.9	35.9	35.9	75	28.8	1	5	90	0.00	30.244 
04:45	35.9	35.9	35.9	75	28.8	2	4	90	0.00	30.237 
04:50	35.8	35.8	35.8	74	28.3	3	5	112	0.00	30.237 
04:55	35.8	35.8	35.8	74	28.3	2	6	90	0.00	30.237 
05:00	35.8	35.8	35.8	74	28.3	1	4	112	0.00	30.242 
05:05	35.8	35.8	35.8	74	28.3	1	4	68	0.00	30.242 
05:10	35.6	35.6	35.6	74	28.1	0	3	45	0.00	30.242 
05:15	35.6	35.6	35.6	75	28.5	0	2	45	0.00	30.255 
05:20	35.6	35.6	35.6	74	28.1	0	2	45	0.00	30.255 
05:25	35.6	35.6	35.6	74	28.1	0	2	45	0.00	30.255 
05:30	35.6	35.6	35.6	74	28.1	0	2	45	0.00	30.269 
05:35	35.6	35.6	35.6	74	28.1	0	1	45	0.00	30.269 
05:40	35.6	35.6	35.6	75	28.5	0	1	22	0.00	30.269 
05:45	35.5	35.5	35.5	74	28.0	1	3	68	0.00	30.271 
05:50	35.5	35.5	35.5	74	28.0	1	4	90	0.00	30.271 
05:55	35.3	35.3	35.3	73	27.5	1	5	112	0.00	30.271 
06:00	35.3	35.3	35.3	74	27.9	0	3	68	0.00	30.276 
06:05	35.3	35.3	35.3	73	27.5	0	1	68	0.00	30.276 
06:10	35.2	35.2	35.2	73	27.4	0	1	68	0.00	30.276 
06:15	35.2	35.2	35.2	73	27.4	0	1	68	0.00	30.274 
06:20	35.2	35.2	35.2	74	27.8	0	1	45	0.00	30.274 
06:25	35.2	35.2	35.2	74	27.8	0	2	45	0.00	30.274 
06:30	35.2	35.2	35.2	74	27.8	0	1	45	0.00	30.278 
06:35	35.2	35.2	35.2	74	27.8	0	2	22	0.00	30.278 
06:40	35.2	35.2	35.2	75	28.1	0	1	45	0.00	30.278 
06:45	35.2	35.2	35.2	75	28.1	0	2	45	0.00	30.288 
06:50	35.2	35.2	35.2	74	27.8	0	3	45	0.00	30.288 
06:55	35.2	35.2	35.2	74	27.8	0	1	90	0.00	30.288 
07:00	35.2	35.2	35.2	74	27.8	0	2	90	0.00	30.289 
07:05	35.2	35.2	35.2	75	28.1	0	2	90	0.00	30.289 
07:10	35.2	35.2	35.2	75	28.1	0	2	90	0.00	30.289 
07:15	35.2	35.2	35.2	74	27.8	0	1	90	0.00	30.296 
07:20	35.3	35.3	35.3	75	28.2	0	1	90	0.00	30.296 
07:25	35.3	35.3	35.3	75	28.2	0	0	---	0.00	30.296 
07:30	35.3	35.3	35.3	76	28.5	0	0	---	0.01	30.307 
07:35	35.3	35.3	35.3	76	28.5	0	0	---	0.00	30.307 
07:40	35.3	35.3	35.3	75	28.2	0	2	68	0.00	30.307 
07:45	35.3	35.3	35.3	75	28.2	0	1	68	0.00	30.319 
07:50	35.3	35.3	35.3	75	28.2	0	0	---	0.00	30.319 
07:55	35.3	35.3	35.3	75	28.2	0	1	68	0.00	30.319 
08:00	35.3	35.3	35.3	75	28.2	0	2	68	0.00	30.319 
08:05	35.5	35.5	35.5	75	28.4	0	2	45	0.00	30.319 
08:10	35.5	35.5	35.5	74	28.0	0	2	45	0.00	30.319 
08:15	35.5	35.5	35.5	74	28.0	0	2	45	0.00	30.317 
08:20	35.5	35.5	35.5	75	28.4	0	2	45	0.00	30.317 
08:25	35.6	35.6	35.6	74	28.1	0	1	45	0.00	30.317 
08:30	35.6	35.6	35.6	74	28.1	1	3	45	0.00	30.319 
08:35	35.6	35.6	35.6	75	28.5	0	2	45	0.00	30.319 
08:40	35.6	35.6	35.6	74	28.1	0	1	45	0.00	30.319 
08:45	35.6	35.6	35.6	75	28.5	0	2	45	0.00	30.322 
08:50	35.6	35.6	35.6	74	28.1	0	1	45	0.00	30.322 
08:55	35.6	35.6	35.6	74	28.1	0	1	45	0.00	30.322 
09:00	35.6	35.6	35.6	74	28.1	0	1	45	0.00	30.326 
09:05	35.6	35.6	35.6	74	28.1	0	1	45	0.00	30.326 
09:10	35.8	35.8	35.8	75	28.7	0	1	45	0.00	30.326 
09:15	35.8	35.8	35.8	75	28.7	0	1	45	0.00	30.325 
09:20	35.9	35.9	35.9	76	29.1	0	1	45	0.00	30.325 
09:25	35.9	35.9	35.9	75	28.8	0	2	45	0.00	30.325 
09:30	36.0	36.0	36.0	75	28.9	0	1	45	0.00	30.335 
09:35	36.0	36.0	36.0	75	28.9	0	3	45	0.00	30.335 
09:40	36.0	36.0	36.0	74	28.5	0	1	112	0.00	30.335 
09:45	36.0	36.0	36.0	74	28.5	0	1	112	0.00	30.336 
09:50	36.0	36.0	36.0	73	28.2	0	1	112	0.00	30.336 
09:55	36.0	36.0	36.0	73	28.2	0	2	112	0.00	30.336 
10:00	36.0	36.0	36.0	73	28.2	1	3	112	0.00	30.335 
10:05	36.0	36.0	36.0	73	28.2	0	3	112	0.00	30.335 
10:10	36.2	36.2	36.2	74	28.7	0	1	112	0.00	30.335 
10:15	36.3	36.3	36.3	73	28.5	0	2	112	0.00	30.338 
10:20	36.3	36.3	36.3	74	28.8	0	1	112	0.00	30.338 
10:25	36.3	36.3	36.3	73	28.5	0	1	112	0.00	30.338 
10:30	36.5	36.5	36.5	73	28.7	0	2	112	0.00	30.335 
10:35	36.5	36.5	36.5	72	28.3	0	1	68	0.00	30.335 
10:40	36.5	36.5	36.5	72	28.3	0	1	68	0.00	30.335 
10:45	36.5	36.5	36.5	71	28.0	0	2	68	0.00	30.337 
10:50	36.6	36.6	36.6	72	28.4	1	2	68	0.00	30.337 
10:55	36.6	36.6	36.6	72	28.4	0	1	68	0.00	30.337 
11:00	36.8	36.8	36.8	71	28.3	0	2	68	0.00	30.337 
11:05	36.8	36.8	36.8	71	28.3	0	2	68	0.00	30.337 
11:10	36.9	36.9	36.9	72	28.7	0	1	68	0.00	30.337 
11:15	36.9	36.9	36.9	71	28.4	0	1	68	0.00	30.336 
11:20	37.0	37.0	37.0	72	28.8	0	2	68	0.00	30.336 
11:25	36.9	36.9	36.9	71	28.4	0	1	22	0.00	30.336 
11:30	36.9	36.9	36.9	71	28.4	0	2	22	0.00	30.334 
11:35	36.9	36.9	36.9	70	28.0	1	3	112	0.00	30.334 
11:40	36.8	36.8	36.8	72	28.6	0	2	112	0.00	30.334 
11:45	36.9	36.9	36.9	73	29.1	0	2	112	0.00	30.329 
11:50	37.0	37.0	37.0	71	28.5	1	2	112	0.00	30.329 
11:55	37.0	37.0	37.0	71	28.5	1	4	112	0.00	30.329 
12:00	37.0	37.0	37.0	71	28.5	1	4	112	0.00	30.322 
12:05	37.2	37.2	37.2	73	29.4	0	2	112	0.00	30.322 
12:10	37.3	37.3	37.3	71	28.8	0	2	45	0.00	30.322 
12:15	37.3	37.3	37.3	72	29.1	0	2	45	0.00	30.319 
12:20	37.3	37.3	37.3	69	28.1	1	4	90	0.00	30.319 
12:25	37.2	37.2	37.2	71	28.7	0	2	90	0.00	30.319 
12:30	37.3	37.3	37.3	72	29.1	0	2	90	0.00	30.311 
12:35	37.3	37.3	37.3	71	28.8	2	4	90	0.00	30.311 
12:40	37.2	37.2	37.2	71	28.7	1	3	90	0.00	30.311 
12:45	37.2	37.2	37.2	73	29.4	0	3	90	0.00	30.315 
12:50	37.3	37.3	37.3	72	29.1	0	2	90	0.00	30.315 
12:55	37.3	37.3	37.3	73	29.5	1	4	90	0.00	30.315 
13:00	37.3	37.3	37.3	71	28.8	0	1	90	0.00	30.305 
13:05	37.3	37.3	37.3	73	29.5	1	3	90	0.00	30.305 
13:10	37.3	37.3	37.3	73	29.5	1	2	90	0.00	30.305 
13:15	37.3	37.3	37.3	72	29.1	0	0	---	0.00	30.303 
13:20	37.6	37.6	37.6	71	29.1	0	2	90	0.00	30.303 
13:25	37.6	37.6	37.6	73	29.7	0	2	90	0.00	30.303 
13:30	37.8	37.8	37.8	71	29.3	1	6	90	0.00	30.299 
13:35	37.5	37.5	37.5	72	29.3	2	4	68	0.00	30.299 
13:40	37.3	37.3	37.3	71	28.8	1	4	112	0.00	30.299 
13:45	37.5	37.5	37.5	73	29.6	1	4	90	0.00	30.293 
13:50	37.5	37.5	37.5	72	29.3	1	4	112	0.00	30.293 
13:55	37.8	37.8	37.8	70	28.9	1	4	112	0.00	30.293 
14:00	37.9	37.9	37.9	70	29.0	1	5	112	0.00	30.287 
14:05	37.8	37.8	37.8	70	28.9	2	4	112	0.00	30.287 
14:10	37.8	37.8	37.8	69	28.6	0	3	158	0.00	30.287 
14:15	37.8	37.8	37.8	69	28.6	0	2	180	0.00	30.287 
14:20	37.9	37.9	37.9	70	29.0	0	1	158	0.00	30.287 
14:25	38.2	38.2	38.2	72	30.0	0	2	180	0.00	30.287 
14:30	38.5	38.5	38.5	71	29.9	0	2	202	0.00	30.288 
14:35	38.5	38.5	38.5	70	29.6	0	2	270	0.00	30.288 
14:40	38.5	38.5	38.5	69	29.2	1	4	270	0.00	30.288 
14:45	38.3	38.3	38.3	71	29.7	1	2	112	0.00	30.279 
14:50	38.2	38.2	38.2	69	28.9	1	3	112	0.00	30.279 
14:55	38.2	38.2	38.2	70	29.3	0	1	112	0.00	30.279 
15:00	38.2	38.2	38.2	70	29.3	1	2	112	0.00	30.282 
15:05	38.0	38.0	38.0	71	29.4	0	2	225	0.00	30.282 
15:10	38.0	38.0	38.0	71	29.4	0	2	225	0.00	30.282 
15:15	38.0	38.0	38.0	71	29.4	0	1	225	0.00	30.286 
15:20	37.9	37.9	37.9	71	29.4	1	4	225	0.00	30.286 
15:25	37.9	37.9	37.9	69	28.7	0	3	112	0.00	30.286 
15:30	37.8	37.8	37.8	70	28.9	0	2	112	0.00	30.283 
15:35	37.8	37.8	37.8	71	29.3	1	3	90	0.00	30.283 
15:40	37.8	37.8	37.8	70	28.9	1	3	90	0.00	30.283 
15:45	37.8	37.8	37.8	72	29.6	0	2	90	0.00	30.282 
15:50	37.9	37.9	37.9	73	30.0	1	5	90	0.00	30.282 
15:55	37.9	37.9	37.9	71	29.4	1	3	112	0.00	30.282 
16:00	37.9	37.9	37.9	71	29.4	0	2	112	0.00	30.275 
16:05	37.8	37.8	37.8	71	29.3	0	1	112	0.00	30.275 
16:10	37.8	37.8	37.8	71	29.3	1	2	225	0.00	30.275 
16:15	37.9	37.9	37.9	72	29.7	0	2	225	0.00	30.269 
16:20	37.8	37.8	37.8	71	29.3	0	2	225	0.00	30.269 
16:25	37.8	37.8	37.8	72	29.6	0	1	225	0.00	30.269 
16:30	37.8	37.8	37.8	72	29.6	0	1	225	0.00	30.272 
16:35	37.8	37.8	37.8	72	29.6	0	2	225	0.00	30.272 
16:40	37.6	37.6	37.6	71	29.1	1	3	270	0.00	30.272 
16:45	37.6	37.6	37.6	73	29.7	0	1	270	0.00	30.271 
16:50	37.6	37.6	37.6	72	29.4	0	1	270	0.00	30.271 
16:55	37.6	37.6	37.6	72	29.4	0	0	---	0.00	30.271 
17:00	37.5	37.5	37.5	73	29.6	0	0	---	0.00	30.259 
17:05	37.5	37.5	37.5	72	29.3	0	1	270	0.00	30.259 
17:10	37.3	37.3	37.3	73	29.5	0	1	270	0.00	30.259 
17:15	37.2	37.2	37.2	73	29.4	0	1	270	0.00	30.262 
17:20	37.0	37.0	37.0	74	29.5	0	1	270	0.00	30.262 
17:25	36.9	36.9	36.9	74	29.4	1	4	270	0.00	30.262 
17:30	36.8	36.8	36.8	73	29.0	2	4	112	0.00	30.258 
17:35	36.5	36.5	36.5	74	29.0	2	6	112	0.00	30.258 
17:40	36.3	36.3	36.3	74	28.8	2	4	90	0.00	30.258 
17:45	36.3	36.3	36.3	74	28.8	1	2	112	0.00	30.255 
17:50	36.2	36.2	36.2	75	29.1	0	1	112	0.00	30.255 
17:55	36.0	36.0	36.0	76	29.2	0	1	112	0.00	30.255 
18:00	36.0	36.0	36.0	76	29.2	0	1	112	0.00	30.257 
18:05	36.0	36.0	36.0	77	29.5	0	2	112	0.00	30.257 
18:10	36.0	36.0	36.0	77	29.5	0	2	112	0.00	30.257 
18:15	36.2	36.2	36.2	77	29.7	1	3	112	0.00	30.256 
18:20	36.2	36.2	36.2	77	29.7	1	5	112	0.00	30.256 
18:25	36.3	36.3	36.3	77	29.8	1	3	90	0.00	30.256 
18:30	36.3	36.3	36.3	76	29.5	2	5	112	0.00	30.250 
18:35	36.3	36.3	36.3	77	29.8	1	3	112	0.00	30.250 
18:40	36.3	36.3	36.3	77	29.8	1	2	112	0.00	30.250 
18:45	36.3	36.3	36.3	77	29.8	1	4	112	0.00	30.254 
18:50	36.3	36.3	36.3	77	29.8	1	3	112	0.00	30.254 
18:55	36.3	36.3	36.3	77	29.8	1	4	112	0.00	30.254 
19:00	36.3	36.3	36.3	77	29.8	1	3	112	0.00	30.249 
19:05	36.2	36.2	36.2	77	29.7	1	3	112	0.00	30.249 
19:10	36.2	36.2	36.2	77	29.7	1	4	112	0.00	30.249 
19:15	36.2	36.2	36.2	77	29.7	1	2	158	0.00	30.248 
19:20	36.2	36.2	36.2	77	29.7	1	5	90	0.00	30.248 
19:25	36.2	36.2	36.2	78	30.0	2	5	90	0.00	30.248 
19:30	36.2	36.2	36.2	78	30.0	2	5	112	0.00	30.245 
19:35	36.0	36.0	36.0	78	29.8	2	6	112	0.00	30.245 
19:40	36.0	36.0	36.0	77	29.5	2	5	112	0.00	30.245 
19:45	35.9	35.9	35.9	77	29.4	3	7	112	0.00	30.245 
19:50	35.8	35.8	35.8	78	29.6	2	6	90	0.00	30.245 
19:55	35.8	35.8	35.8	78	29.6	3	7	112	0.00	30.245 
20:00	35.8	35.8	35.8	79	29.9	1	5	112	0.00	30.244 
20:05	35.8	35.8	35.8	79	29.9	2	5	112	0.00	30.244 
20:10	35.8	35.8	35.8	79	29.9	1	4	112	0.00	30.244 
20:15	35.8	32.5	35.8	78	29.6	4	7	112	0.00	30.236 
20:20	35.8	35.8	35.8	79	29.9	3	7	112	0.00	30.236 
20:25	35.8	35.8	35.8	79	29.9	2	6	112	0.00	30.236 
20:30	35.8	35.8	35.8	79	29.9	3	9	90	0.00	30.233 
20:35	35.8	35.8	35.8	79	29.9	2	6	90	0.00	30.233 
20:40	35.8	35.8	35.8	80	30.2	1	4	112	0.00	30.233 
20:45	35.9	35.9	35.9	80	30.3	1	6	112	0.00	30.234 
20:50	35.9	35.9	35.9	80	30.3	2	5	112	0.00	30.234 
20:55	35.8	35.8	35.8	80	30.2	3	7	112	0.00	30.234 
21:00	35.6	32.2	35.6	80	30.1	4	7	112	0.00	30.237 
21:05	35.6	35.6	35.6	80	30.1	2	6	112	0.00	30.237 
21:10	35.5	35.5	35.5	81	30.3	3	7	112	0.00	30.237 
21:15	35.5	35.5	35.5	81	30.3	2	5	90	0.00	30.237 
21:20	35.5	35.5	35.5	81	30.3	2	6	112	0.00	30.237 
21:25	35.3	35.3	35.3	81	30.1	3	6	112	0.00	30.237 
21:30	35.3	35.3	35.3	81	30.1	3	10	112	0.00	30.229 
21:35	35.3	35.3	35.3	81	30.1	2	6	112	0.00	30.229 
21:40	35.3	35.3	35.3	81	30.1	3	7	112	0.00	30.229 
21:45	35.5	35.5	35.5	82	30.6	1	5	112	0.00	30.230 
21:50	35.5	35.5	35.5	81	30.3	2	7	112	0.00	30.230 
21:55	35.5	35.5	35.5	81	30.3	2	10	112	0.00	30.230 
22:00	35.5	35.5	35.5	82	30.6	2	5	112	0.00	30.226 
22:05	35.5	35.5	35.5	82	30.6	2	8	112	0.00	30.226 
22:10	35.5	35.5	35.5	83	30.9	2	6	112	0.00	30.226 
22:15	35.5	35.5	35.5	82	30.6	3	6	112	0.00	30.224 
22:20	35.3	35.3	35.3	82	30.4	3	9	112	0.00	30.224 
22:25	35.3	35.3	35.3	82	30.4	2	5	112	0.00	30.224 
22:30	35.3	35.3	35.3	83	30.7	2	5	90	0.00	30.212 
22:35	35.3	35.3	35.3	83	30.7	3	6	112	0.00	30.212 
22:40	35.3	35.3	35.3	82	30.4	3	7	112	0.00	30.212 
22:45	35.2	35.2	35.2	82	30.3	3	5	112	0.00	30.210 
22:50	35.2	35.2	35.2	83	30.6	2	6	90	0.00	30.210 
22:55	35.3	35.3	35.3	83	30.7	1	6	112	0.00	30.210 
23:00	35.3	35.3	35.3	83	30.7	1	2	112	0.00	30.211 
23:05	35.3	35.3	35.3	83	30.7	1	4	135	0.00	30.211 
23:10	35.2	35.2	35.2	82	30.3	2	6	112	0.00	30.211 
23:15	35.0	35.0	35.0	82	30.1	2	6	112	0.00	30.207 
23:20	34.9	34.9	34.9	83	30.3	2	7	90	0.00	30.207 
23:25	34.9	34.9	34.9	83	30.3	1	4	135	0.00	30.207 
23:30	34.9	34.9	34.9	83	30.3	1	5	112	0.00	30.208 
23:35	34.7	34.7	34.7	83	30.1	1	5	90	0.00	30.208 
23:40	34.6	34.6	34.6	83	30.0	2	6	112	0.00	30.208 
23:45	34.6	34.6	34.6	83	30.0	2	6	90	0.00	30.200 
23:50	34.6	34.6	34.6	84	30.3	2	5	90	0.00	30.200 
23:55	34.6	34.6	34.6	84	30.3	2	5	90	0.00	30.200 

CoCoRaHS
IN-AL-39
A2 Web Hosting
Creative Commons License
GoDaddy
Look for:

loaded 2017-10-17 22:06:56 • last modified 2010-11-18 10:43:29
Privacy PolicyDisclaimer
• wx.awcolley.com is powered by PmWiki v.2002016 •
• all content (unless otherwise noted) © 2017 A W Colley